sensor_id;sensor_type;location;lat;lon;timestamp;P1;durP1;ratioP1;P2;durP2;ratioP2
25169;SDS011;13129;48.012;10.352;2023-03-23T04:31:40;10.38;;;6.90;;
25169;SDS011;13129;48.012;10.352;2023-03-23T04:34:10;7.65;;;6.90;;
25169;SDS011;13129;48.012;10.352;2023-03-23T04:36:42;7.53;;;6.80;;
25169;SDS011;13129;48.012;10.352;2023-03-23T04:39:08;6.68;;;5.93;;
25169;SDS011;13129;48.012;10.352;2023-03-23T04:41:37;7.32;;;6.53;;
25169;SDS011;13129;48.012;10.352;2023-03-23T04:44:05;8.23;;;6.30;;
25169;SDS011;13129;48.012;10.352;2023-03-23T04:46:32;7.10;;;6.25;;
25169;SDS011;13129;48.012;10.352;2023-03-23T04:48:58;7.78;;;6.00;;
25169;SDS011;13129;48.012;10.352;2023-03-23T04:51:25;9.60;;;6.28;;
25169;SDS011;13129;48.012;10.352;2023-03-23T04:53:52;7.93;;;5.82;;
25169;SDS011;13129;48.012;10.352;2023-03-23T04:56:17;7.07;;;5.93;;
25169;SDS011;13129;48.012;10.352;2023-03-23T04:58:43;7.75;;;5.88;;
25169;SDS011;13129;48.012;10.352;2023-03-23T05:01:10;8.43;;;6.53;;
25169;SDS011;13129;48.012;10.352;2023-03-23T05:03:40;8.20;;;7.00;;
25169;SDS011;13129;48.012;10.352;2023-03-23T05:06:06;7.30;;;6.15;;
25169;SDS011;13129;48.012;10.352;2023-03-23T05:08:32;6.93;;;6.18;;
25169;SDS011;13129;48.012;10.352;2023-03-23T05:10:59;7.05;;;5.85;;
25169;SDS011;13129;48.012;10.352;2023-03-23T05:13:26;6.22;;;5.70;;
25169;SDS011;13129;48.012;10.352;2023-03-23T05:15:53;6.78;;;6.10;;
25169;SDS011;13129;48.012;10.352;2023-03-23T05:18:19;8.82;;;6.75;;
25169;SDS011;13129;48.012;10.352;2023-03-23T05:20:45;8.60;;;6.22;;
25169;SDS011;13129;48.012;10.352;2023-03-23T05:23:12;7.68;;;6.38;;
25169;SDS011;13129;48.012;10.352;2023-03-23T05:25:38;7.28;;;6.57;;
25169;SDS011;13129;48.012;10.352;2023-03-23T05:28:07;7.00;;;6.15;;
25169;SDS011;13129;48.012;10.352;2023-03-23T05:30:35;8.63;;;7.35;;
25169;SDS011;13129;48.012;10.352;2023-03-23T05:33:03;7.35;;;6.03;;
25169;SDS011;13129;48.012;10.352;2023-03-23T05:35:29;6.57;;;5.63;;
25169;SDS011;13129;48.012;10.352;2023-03-23T05:37:55;6.90;;;6.20;;
25169;SDS011;13129;48.012;10.352;2023-03-23T05:40:22;7.15;;;5.45;;
25169;SDS011;13129;48.012;10.352;2023-03-23T05:42:50;7.68;;;5.78;;
25169;SDS011;13129;48.012;10.352;2023-03-23T05:45:16;7.47;;;5.32;;
25169;SDS011;13129;48.012;10.352;2023-03-23T05:47:43;6.63;;;5.30;;
25169;SDS011;13129;48.012;10.352;2023-03-23T05:50:09;6.43;;;5.78;;
25169;SDS011;13129;48.012;10.352;2023-03-23T05:52:35;6.60;;;5.20;;
25169;SDS011;13129;48.012;10.352;2023-03-23T05:55:02;7.00;;;5.57;;
25169;SDS011;13129;48.012;10.352;2023-03-23T05:57:29;5.50;;;4.50;;
25169;SDS011;13129;48.012;10.352;2023-03-23T05:59:55;8.10;;;5.78;;
25169;SDS011;13129;48.012;10.352;2023-03-23T06:02:22;7.50;;;5.32;;
25169;SDS011;13129;48.012;10.352;2023-03-23T06:04:49;7.13;;;5.28;;
25169;SDS011;13129;48.012;10.352;2023-03-23T06:07:22;7.90;;;5.95;;
25169;SDS011;13129;48.012;10.352;2023-03-23T06:09:51;8.15;;;5.13;;
25169;SDS011;13129;48.012;10.352;2023-03-23T06:12:17;7.07;;;5.05;;
25169;SDS011;13129;48.012;10.352;2023-03-23T06:14:45;6.05;;;4.30;;
25169;SDS011;13129;48.012;10.352;2023-03-23T06:17:17;4.63;;;3.33;;
25169;SDS011;13129;48.012;10.352;2023-03-23T06:19:43;3.83;;;3.53;;
25169;SDS011;13129;48.012;10.352;2023-03-23T06:22:10;4.85;;;3.78;;
25169;SDS011;13129;48.012;10.352;2023-03-23T06:24:36;3.05;;;2.75;;
25169;SDS011;13129;48.012;10.352;2023-03-23T06:27:01;4.60;;;3.67;;
25169;SDS011;13129;48.012;10.352;2023-03-23T06:29:28;3.47;;;3.17;;
25169;SDS011;13129;48.012;10.352;2023-03-23T06:31:55;3.67;;;3.15;;
25169;SDS011;13129;48.012;10.352;2023-03-23T06:34:24;3.13;;;2.83;;
25169;SDS011;13129;48.012;10.352;2023-03-23T06:36:50;3.78;;;3.28;;
25169;SDS011;13129;48.012;10.352;2023-03-23T06:39:16;3.80;;;3.05;;
25169;SDS011;13129;48.012;10.352;2023-03-23T06:41:42;3.45;;;3.15;;
25169;SDS011;13129;48.012;10.352;2023-03-23T06:44:08;4.70;;;3.10;;
25169;SDS011;13129;48.012;10.352;2023-03-23T06:46:38;3.90;;;3.08;;
25169;SDS011;13129;48.012;10.352;2023-03-23T06:49:05;5.72;;;3.85;;
25169;SDS011;13129;48.012;10.352;2023-03-23T06:51:30;3.13;;;2.83;;
25169;SDS011;13129;48.012;10.352;2023-03-23T06:53:56;3.63;;;2.85;;
25169;SDS011;13129;48.012;10.352;2023-03-23T06:56:23;3.00;;;2.70;;
25169;SDS011;13129;48.012;10.352;2023-03-23T06:58:48;4.85;;;3.05;;
25169;SDS011;13129;48.012;10.352;2023-03-23T07:01:18;3.13;;;2.88;;
25169;SDS011;13129;48.012;10.352;2023-03-23T07:03:44;3.65;;;3.00;;
25169;SDS011;13129;48.012;10.352;2023-03-23T07:06:10;4.22;;;3.10;;
25169;SDS011;13129;48.012;10.352;2023-03-23T07:08:37;3.47;;;2.85;;
25169;SDS011;13129;48.012;10.352;2023-03-23T07:11:03;3.75;;;3.20;;
25169;SDS011;13129;48.012;10.352;2023-03-23T07:13:29;5.10;;;3.60;;
25169;SDS011;13129;48.012;10.352;2023-03-23T07:15:54;5.32;;;4.25;;
25169;SDS011;13129;48.012;10.352;2023-03-23T07:18:20;5.10;;;3.70;;
25169;SDS011;13129;48.012;10.352;2023-03-23T07:20:50;3.65;;;3.28;;
25169;SDS011;13129;48.012;10.352;2023-03-23T07:23:17;3.58;;;3.25;;
25169;SDS011;13129;48.012;10.352;2023-03-23T07:25:43;4.13;;;3.22;;
25169;SDS011;13129;48.012;10.352;2023-03-23T07:28:11;3.60;;;3.33;;
25169;SDS011;13129;48.012;10.352;2023-03-23T07:30:37;3.85;;;3.55;;
25169;SDS011;13129;48.012;10.352;2023-03-23T07:33:06;3.55;;;3.25;;
25169;SDS011;13129;48.012;10.352;2023-03-23T07:35:33;3.25;;;2.95;;
25169;SDS011;13129;48.012;10.352;2023-03-23T07:38:00;2.72;;;2.53;;
25169;SDS011;13129;48.012;10.352;2023-03-23T07:40:27;2.95;;;2.65;;
25169;SDS011;13129;48.012;10.352;2023-03-23T07:42:54;2.47;;;2.28;;
25169;SDS011;13129;48.012;10.352;2023-03-23T07:45:22;4.97;;;2.40;;
25169;SDS011;13129;48.012;10.352;2023-03-23T07:47:49;2.35;;;2.15;;
25169;SDS011;13129;48.012;10.352;2023-03-23T07:50:15;2.90;;;2.60;;
25169;SDS011;13129;48.012;10.352;2023-03-23T07:52:41;3.38;;;3.08;;
25169;SDS011;13129;48.012;10.352;2023-03-23T07:55:08;2.95;;;2.70;;
25169;SDS011;13129;48.012;10.352;2023-03-23T07:57:45;5.03;;;3.00;;
25169;SDS011;13129;48.012;10.352;2023-03-23T08:00:14;3.80;;;2.63;;
25169;SDS011;13129;48.012;10.352;2023-03-23T08:02:43;3.33;;;3.10;;
25169;SDS011;13129;48.012;10.352;2023-03-23T08:05:09;2.60;;;2.40;;
25169;SDS011;13129;48.012;10.352;2023-03-23T08:07:35;3.13;;;2.83;;
25169;SDS011;13129;48.012;10.352;2023-03-23T08:10:01;3.45;;;3.15;;
25169;SDS011;13129;48.012;10.352;2023-03-23T08:12:27;4.20;;;3.80;;
25169;SDS011;13129;48.012;10.352;2023-03-23T08:14:53;3.42;;;3.13;;
25169;SDS011;13129;48.012;10.352;2023-03-23T08:17:19;4.13;;;3.05;;
25169;SDS011;13129;48.012;10.352;2023-03-23T08:19:45;4.03;;;3.47;;
25169;SDS011;13129;48.012;10.352;2023-03-23T08:22:11;4.35;;;3.85;;
25169;SDS011;13129;48.012;10.352;2023-03-23T08:24:37;3.80;;;3.47;;
25169;SDS011;13129;48.012;10.352;2023-03-23T08:27:03;4.15;;;3.63;;
25169;SDS011;13129;48.012;10.352;2023-03-23T08:29:29;6.07;;;3.97;;
25169;SDS011;13129;48.012;10.352;2023-03-23T08:31:56;3.53;;;3.22;;
25169;SDS011;13129;48.012;10.352;2023-03-23T08:34:22;6.70;;;4.05;;
25169;SDS011;13129;48.012;10.352;2023-03-23T08:36:48;4.57;;;4.15;;
25169;SDS011;13129;48.012;10.352;2023-03-23T08:39:16;5.22;;;4.72;;
25169;SDS011;13129;48.012;10.352;2023-03-23T08:41:43;5.25;;;4.60;;
25169;SDS011;13129;48.012;10.352;2023-03-23T08:44:09;5.63;;;4.10;;
25169;SDS011;13129;48.012;10.352;2023-03-23T08:46:35;7.50;;;4.05;;
25169;SDS011;13129;48.012;10.352;2023-03-23T08:49:01;4.55;;;3.90;;
25169;SDS011;13129;48.012;10.352;2023-03-23T08:51:27;6.07;;;4.35;;
25169;SDS011;13129;48.012;10.352;2023-03-23T08:53:52;5.03;;;3.90;;
25169;SDS011;13129;48.012;10.352;2023-03-23T08:56:19;4.18;;;3.80;;
25169;SDS011;13129;48.012;10.352;2023-03-23T08:58:45;4.85;;;4.38;;
25169;SDS011;13129;48.012;10.352;2023-03-23T09:01:10;4.90;;;4.40;;
25169;SDS011;13129;48.012;10.352;2023-03-23T09:03:36;4.45;;;4.05;;
25169;SDS011;13129;48.012;10.352;2023-03-23T09:06:03;4.55;;;3.83;;
25169;SDS011;13129;48.012;10.352;2023-03-23T09:08:30;4.07;;;3.67;;
25169;SDS011;13129;48.012;10.352;2023-03-23T09:11:00;4.78;;;3.45;;
25169;SDS011;13129;48.012;10.352;2023-03-23T09:13:30;3.20;;;3.00;;
25169;SDS011;13129;48.012;10.352;2023-03-23T09:15:56;4.15;;;3.20;;
25169;SDS011;13129;48.012;10.352;2023-03-23T09:18:22;3.55;;;3.25;;
25169;SDS011;13129;48.012;10.352;2023-03-23T09:20:51;4.20;;;3.80;;
25169;SDS011;13129;48.012;10.352;2023-03-23T09:23:18;3.42;;;3.08;;
25169;SDS011;13129;48.012;10.352;2023-03-23T09:25:45;3.60;;;3.30;;
25169;SDS011;13129;48.012;10.352;2023-03-23T09:28:11;3.67;;;3.13;;
25169;SDS011;13129;48.012;10.352;2023-03-23T09:30:37;4.65;;;4.07;;
25169;SDS011;13129;48.012;10.352;2023-03-23T09:33:04;4.15;;;3.78;;
25169;SDS011;13129;48.012;10.352;2023-03-23T09:35:31;4.10;;;3.63;;
25169;SDS011;13129;48.012;10.352;2023-03-23T09:37:59;4.38;;;3.80;;
25169;SDS011;13129;48.012;10.352;2023-03-23T09:40:29;4.45;;;3.70;;
25169;SDS011;13129;48.012;10.352;2023-03-23T09:42:58;4.82;;;4.43;;
25169;SDS011;13129;48.012;10.352;2023-03-23T09:53:38;3.80;;;3.50;;
25169;SDS011;13129;48.012;10.352;2023-03-23T09:56:11;4.50;;;3.83;;
25169;SDS011;13129;48.012;10.352;2023-03-23T09:59:23;6.38;;;3.45;;
25169;SDS011;13129;48.012;10.352;2023-03-23T10:01:42;2.65;;;2.45;;
25169;SDS011;13129;48.012;10.352;2023-03-23T10:06:46;2.33;;;2.03;;
25169;SDS011;13129;48.012;10.352;2023-03-23T10:09:13;3.25;;;2.22;;
25169;SDS011;13129;48.012;10.352;2023-03-23T10:11:45;2.70;;;2.50;;
25169;SDS011;13129;48.012;10.352;2023-03-23T10:17:28;3.13;;;2.83;;
25169;SDS011;13129;48.012;10.352;2023-03-23T10:25:51;2.03;;;1.92;;
25169;SDS011;13129;48.012;10.352;2023-03-23T10:28:34;1.88;;;1.77;;
25169;SDS011;13129;48.012;10.352;2023-03-23T10:31:01;2.80;;;2.33;;
25169;SDS011;13129;48.012;10.352;2023-03-23T10:38:45;2.40;;;2.20;;
25169;SDS011;13129;48.012;10.352;2023-03-23T10:41:28;2.28;;;2.08;;
25169;SDS011;13129;48.012;10.352;2023-03-23T10:43:53;2.22;;;2.05;;
25169;SDS011;13129;48.012;10.352;2023-03-23T10:46:25;3.10;;;1.98;;
25169;SDS011;13129;48.012;10.352;2023-03-23T10:49:13;2.75;;;2.08;;
25169;SDS011;13129;48.012;10.352;2023-03-23T10:51:46;2.25;;;2.05;;
25169;SDS011;13129;48.012;10.352;2023-03-23T10:54:25;2.10;;;2.00;;
25169;SDS011;13129;48.012;10.352;2023-03-23T10:56:53;2.67;;;2.30;;
25169;SDS011;13129;48.012;10.352;2023-03-23T10:59:29;2.10;;;2.00;;
25169;SDS011;13129;48.012;10.352;2023-03-23T11:01:58;2.85;;;2.25;;
25169;SDS011;13129;48.012;10.352;2023-03-23T11:04:28;2.53;;;2.33;;
25169;SDS011;13129;48.012;10.352;2023-03-23T11:06:58;2.17;;;1.98;;
25169;SDS011;13129;48.012;10.352;2023-03-23T11:09:39;2.60;;;2.42;;
25169;SDS011;13129;48.012;10.352;2023-03-23T11:12:18;2.38;;;2.17;;
25169;SDS011;13129;48.012;10.352;2023-03-23T11:14:45;4.13;;;2.40;;
25169;SDS011;13129;48.012;10.352;2023-03-23T11:17:20;2.17;;;2.00;;
25169;SDS011;13129;48.012;10.352;2023-03-23T11:19:49;2.72;;;2.08;;
25169;SDS011;13129;48.012;10.352;2023-03-23T11:22:31;2.20;;;1.98;;
25169;SDS011;13129;48.012;10.352;2023-03-23T11:25:02;3.45;;;2.30;;
25169;SDS011;13129;48.012;10.352;2023-03-23T11:27:29;2.75;;;2.20;;
25169;SDS011;13129;48.012;10.352;2023-03-23T11:32:27;2.92;;;2.10;;
25169;SDS011;13129;48.012;10.352;2023-03-23T11:34:57;2.40;;;2.20;;
25169;SDS011;13129;48.012;10.352;2023-03-23T11:40:23;3.20;;;1.85;;
25169;SDS011;13129;48.012;10.352;2023-03-23T11:51:05;2.40;;;2.20;;
25169;SDS011;13129;48.012;10.352;2023-03-23T11:56:29;2.50;;;2.30;;
25169;SDS011;13129;48.012;10.352;2023-03-23T11:58:56;4.90;;;2.70;;
25169;SDS011;13129;48.012;10.352;2023-03-23T12:04:03;3.05;;;2.28;;
25169;SDS011;13129;48.012;10.352;2023-03-23T12:06:48;5.03;;;2.40;;
25169;SDS011;13129;48.012;10.352;2023-03-23T12:22:59;2.67;;;2.20;;
25169;SDS011;13129;48.012;10.352;2023-03-23T12:28:16;3.10;;;2.20;;
25169;SDS011;13129;48.012;10.352;2023-03-23T12:42:02;2.50;;;2.30;;
25169;SDS011;13129;48.012;10.352;2023-03-23T12:44:46;3.05;;;2.55;;
25169;SDS011;13129;48.012;10.352;2023-03-23T12:47:30;3.97;;;3.00;;
25169;SDS011;13129;48.012;10.352;2023-03-23T12:52:39;5.45;;;2.50;;
25169;SDS011;13129;48.012;10.352;2023-03-23T12:58:28;3.15;;;2.50;;
25169;SDS011;13129;48.012;10.352;2023-03-23T13:06:18;3.20;;;2.65;;
25169;SDS011;13129;48.012;10.352;2023-03-23T13:11:54;4.45;;;3.25;;
25169;SDS011;13129;48.012;10.352;2023-03-23T13:17:33;2.58;;;2.20;;
25169;SDS011;13129;48.012;10.352;2023-03-23T13:23:01;3.60;;;2.80;;
25169;SDS011;13129;48.012;10.352;2023-03-23T13:28:15;6.10;;;5.25;;
25169;SDS011;13129;48.012;10.352;2023-03-23T13:30:55;4.32;;;2.95;;
25169;SDS011;13129;48.012;10.352;2023-03-23T13:36:03;9.13;;;7.32;;
25169;SDS011;13129;48.012;10.352;2023-03-23T13:38:33;20.38;;;16.35;;
25169;SDS011;13129;48.012;10.352;2023-03-23T13:41:05;30.70;;;21.40;;
25169;SDS011;13129;48.012;10.352;2023-03-23T13:43:36;6.70;;;4.78;;
25169;SDS011;13129;48.012;10.352;2023-03-23T13:51:26;16.52;;;11.55;;
25169;SDS011;13129;48.012;10.352;2023-03-23T13:54:12;8.52;;;6.07;;
25169;SDS011;13129;48.012;10.352;2023-03-23T14:01:56;5.20;;;4.70;;
25169;SDS011;13129;48.012;10.352;2023-03-23T14:04:41;7.80;;;6.75;;
25169;SDS011;13129;48.012;10.352;2023-03-23T14:07:11;7.40;;;6.18;;
25169;SDS011;13129;48.012;10.352;2023-03-23T14:09:41;3.42;;;3.13;;
25169;SDS011;13129;48.012;10.352;2023-03-23T14:12:28;6.05;;;5.45;;
25169;SDS011;13129;48.012;10.352;2023-03-23T14:14:58;8.52;;;6.47;;
25169;SDS011;13129;48.012;10.352;2023-03-23T14:17:30;10.38;;;8.30;;
25169;SDS011;13129;48.012;10.352;2023-03-23T14:19:59;12.23;;;9.05;;
25169;SDS011;13129;48.012;10.352;2023-03-23T14:22:27;11.90;;;8.65;;
25169;SDS011;13129;48.012;10.352;2023-03-23T14:25:17;8.95;;;5.85;;
25169;SDS011;13129;48.012;10.352;2023-03-23T14:27:45;11.13;;;10.02;;
25169;SDS011;13129;48.012;10.352;2023-03-23T14:30:16;6.03;;;4.20;;
25169;SDS011;13129;48.012;10.352;2023-03-23T14:32:44;5.68;;;4.95;;
25169;SDS011;13129;48.012;10.352;2023-03-23T14:35:27;4.13;;;3.72;;
25169;SDS011;13129;48.012;10.352;2023-03-23T14:37:58;4.20;;;2.47;;
25169;SDS011;13129;48.012;10.352;2023-03-23T14:40:26;5.32;;;3.42;;
25169;SDS011;13129;48.012;10.352;2023-03-23T14:42:52;3.22;;;2.53;;
25169;SDS011;13129;48.012;10.352;2023-03-23T14:45:20;2.25;;;2.05;;
25169;SDS011;13129;48.012;10.352;2023-03-23T14:47:54;5.43;;;3.97;;
25169;SDS011;13129;48.012;10.352;2023-03-23T14:50:39;7.38;;;5.90;;
25169;SDS011;13129;48.012;10.352;2023-03-23T14:53:25;7.82;;;4.78;;
25169;SDS011;13129;48.012;10.352;2023-03-23T14:55:59;6.28;;;5.65;;
25169;SDS011;13129;48.012;10.352;2023-03-23T14:58:27;3.03;;;2.53;;
25169;SDS011;13129;48.012;10.352;2023-03-23T15:03:32;2.97;;;2.42;;
25169;SDS011;13129;48.012;10.352;2023-03-23T15:06:03;2.70;;;2.08;;
25169;SDS011;13129;48.012;10.352;2023-03-23T15:08:34;2.70;;;2.25;;
25169;SDS011;13129;48.012;10.352;2023-03-23T15:13:45;3.15;;;2.80;;
25169;SDS011;13129;48.012;10.352;2023-03-23T15:16:20;3.30;;;2.90;;
25169;SDS011;13129;48.012;10.352;2023-03-23T15:19:02;3.70;;;3.40;;
25169;SDS011;13129;48.012;10.352;2023-03-23T15:21:33;3.63;;;2.72;;
25169;SDS011;13129;48.012;10.352;2023-03-23T15:26:31;3.67;;;2.40;;
25169;SDS011;13129;48.012;10.352;2023-03-23T15:31:55;3.13;;;2.55;;
25169;SDS011;13129;48.012;10.352;2023-03-23T15:34:33;2.63;;;2.40;;
25169;SDS011;13129;48.012;10.352;2023-03-23T15:37:05;2.97;;;2.53;;
25169;SDS011;13129;48.012;10.352;2023-03-23T15:39:43;3.20;;;2.90;;
25169;SDS011;13129;48.012;10.352;2023-03-23T15:42:24;2.83;;;2.63;;
25169;SDS011;13129;48.012;10.352;2023-03-23T15:47:37;2.80;;;2.60;;
25169;SDS011;13129;48.012;10.352;2023-03-23T15:50:13;3.25;;;3.00;;
25169;SDS011;13129;48.012;10.352;2023-03-23T15:52:51;4.05;;;3.65;;
25169;SDS011;13129;48.012;10.352;2023-03-23T15:55:27;3.38;;;3.08;;
25169;SDS011;13129;48.012;10.352;2023-03-23T15:58:00;3.40;;;2.70;;
25169;SDS011;13129;48.012;10.352;2023-03-23T16:00:26;3.35;;;3.00;;
25169;SDS011;13129;48.012;10.352;2023-03-23T16:02:54;3.67;;;2.67;;
25169;SDS011;13129;48.012;10.352;2023-03-23T16:05:26;3.95;;;3.00;;
25169;SDS011;13129;48.012;10.352;2023-03-23T16:07:52;5.03;;;3.25;;
25169;SDS011;13129;48.012;10.352;2023-03-23T16:10:19;3.67;;;3.35;;
25169;SDS011;13129;48.012;10.352;2023-03-23T16:12:47;4.25;;;3.80;;
25169;SDS011;13129;48.012;10.352;2023-03-23T16:15:13;4.43;;;3.97;;
25169;SDS011;13129;48.012;10.352;2023-03-23T16:17:40;4.78;;;3.47;;
25169;SDS011;13129;48.012;10.352;2023-03-23T16:20:19;5.18;;;3.83;;
25169;SDS011;13129;48.012;10.352;2023-03-23T16:22:47;3.55;;;3.25;;
25169;SDS011;13129;48.012;10.352;2023-03-23T16:25:13;3.95;;;3.10;;
25169;SDS011;13129;48.012;10.352;2023-03-23T16:27:39;3.50;;;3.20;;
25169;SDS011;13129;48.012;10.352;2023-03-23T16:30:25;4.93;;;3.58;;
25169;SDS011;13129;48.012;10.352;2023-03-23T16:32:52;3.50;;;3.20;;
25169;SDS011;13129;48.012;10.352;2023-03-23T16:35:18;4.05;;;3.75;;
25169;SDS011;13129;48.012;10.352;2023-03-23T16:37:49;4.40;;;3.72;;
25169;SDS011;13129;48.012;10.352;2023-03-23T16:40:17;4.35;;;3.83;;
25169;SDS011;13129;48.012;10.352;2023-03-23T16:42:44;4.43;;;4.03;;
25169;SDS011;13129;48.012;10.352;2023-03-23T16:45:10;5.63;;;5.13;;
25169;SDS011;13129;48.012;10.352;2023-03-23T16:47:37;8.50;;;4.35;;
25169;SDS011;13129;48.012;10.352;2023-03-23T16:50:04;4.45;;;4.05;;
25169;SDS011;13129;48.012;10.352;2023-03-23T16:52:31;4.40;;;4.00;;
25169;SDS011;13129;48.012;10.352;2023-03-23T16:54:57;4.25;;;3.90;;
25169;SDS011;13129;48.012;10.352;2023-03-23T16:57:23;3.85;;;3.45;;
25169;SDS011;13129;48.012;10.352;2023-03-23T16:59:50;8.32;;;4.70;;
25169;SDS011;13129;48.012;10.352;2023-03-23T17:02:15;5.60;;;4.68;;
25169;SDS011;13129;48.012;10.352;2023-03-23T17:04:42;4.95;;;4.00;;
25169;SDS011;13129;48.012;10.352;2023-03-23T17:07:09;3.90;;;3.55;;
25169;SDS011;13129;48.012;10.352;2023-03-23T17:09:36;5.40;;;4.63;;
25169;SDS011;13129;48.012;10.352;2023-03-23T17:12:02;3.85;;;3.47;;
25169;SDS011;13129;48.012;10.352;2023-03-23T17:14:28;3.95;;;3.55;;
25169;SDS011;13129;48.012;10.352;2023-03-23T17:16:54;6.35;;;4.20;;
25169;SDS011;13129;48.012;10.352;2023-03-23T17:19:20;4.32;;;3.90;;
25169;SDS011;13129;48.012;10.352;2023-03-23T17:21:46;7.05;;;4.43;;
25169;SDS011;13129;48.012;10.352;2023-03-23T17:24:12;5.00;;;4.50;;
25169;SDS011;13129;48.012;10.352;2023-03-23T17:26:38;5.75;;;5.10;;
25169;SDS011;13129;48.012;10.352;2023-03-23T17:29:03;5.13;;;4.63;;
25169;SDS011;13129;48.012;10.352;2023-03-23T17:31:29;6.90;;;4.50;;
25169;SDS011;13129;48.012;10.352;2023-03-23T17:33:55;5.75;;;4.60;;
25169;SDS011;13129;48.012;10.352;2023-03-23T17:36:22;4.78;;;4.30;;
25169;SDS011;13129;48.012;10.352;2023-03-23T17:38:48;7.05;;;4.65;;
25169;SDS011;13129;48.012;10.352;2023-03-23T17:41:14;5.97;;;5.32;;
25169;SDS011;13129;48.012;10.352;2023-03-23T17:43:40;7.65;;;5.80;;
25169;SDS011;13129;48.012;10.352;2023-03-23T17:46:06;6.82;;;5.18;;
25169;SDS011;13129;48.012;10.352;2023-03-23T17:48:33;5.43;;;4.72;;
25169;SDS011;13129;48.012;10.352;2023-03-23T17:51:00;5.35;;;4.82;;
25169;SDS011;13129;48.012;10.352;2023-03-23T17:53:26;5.75;;;4.57;;
25169;SDS011;13129;48.012;10.352;2023-03-23T17:55:56;6.32;;;4.85;;
25169;SDS011;13129;48.012;10.352;2023-03-23T17:58:22;5.40;;;4.90;;
25169;SDS011;13129;48.012;10.352;2023-03-23T18:00:52;5.93;;;5.28;;
25169;SDS011;13129;48.012;10.352;2023-03-23T18:03:19;6.57;;;5.78;;
25169;SDS011;13129;48.012;10.352;2023-03-23T18:05:45;6.50;;;6.00;;
25169;SDS011;13129;48.012;10.352;2023-03-23T18:08:11;5.90;;;5.30;;
25169;SDS011;13129;48.012;10.352;2023-03-23T18:10:38;6.07;;;5.05;;
25169;SDS011;13129;48.012;10.352;2023-03-23T18:13:05;5.78;;;5.18;;
25169;SDS011;13129;48.012;10.352;2023-03-23T18:15:32;5.72;;;5.15;;
25169;SDS011;13129;48.012;10.352;2023-03-23T18:17:59;6.15;;;5.55;;
25169;SDS011;13129;48.012;10.352;2023-03-23T18:20:27;6.18;;;5.30;;
25169;SDS011;13129;48.012;10.352;2023-03-23T18:22:53;5.65;;;5.15;;
25169;SDS011;13129;48.012;10.352;2023-03-23T18:25:19;6.50;;;5.68;;
25169;SDS011;13129;48.012;10.352;2023-03-23T18:27:45;6.60;;;5.47;;
25169;SDS011;13129;48.012;10.352;2023-03-23T18:30:11;8.73;;;7.32;;
25169;SDS011;13129;48.012;10.352;2023-03-23T18:32:37;7.70;;;6.30;;
25169;SDS011;13129;48.012;10.352;2023-03-23T18:35:04;7.88;;;5.10;;
25169;SDS011;13129;48.012;10.352;2023-03-23T18:37:31;7.07;;;5.82;;
25169;SDS011;13129;48.012;10.352;2023-03-23T18:39:58;6.63;;;5.78;;
25169;SDS011;13129;48.012;10.352;2023-03-23T18:42:24;6.10;;;5.53;;
25169;SDS011;13129;48.012;10.352;2023-03-23T18:44:52;5.35;;;4.82;;
25169;SDS011;13129;48.012;10.352;2023-03-23T18:47:18;7.32;;;5.72;;
25169;SDS011;13129;48.012;10.352;2023-03-23T18:49:44;7.63;;;5.70;;
25169;SDS011;13129;48.012;10.352;2023-03-23T18:52:11;5.95;;;4.63;;
25169;SDS011;13129;48.012;10.352;2023-03-23T18:54:37;6.35;;;5.25;;
25169;SDS011;13129;48.012;10.352;2023-03-23T18:57:04;8.02;;;5.40;;
25169;SDS011;13129;48.012;10.352;2023-03-23T18:59:29;7.30;;;5.43;;
25169;SDS011;13129;48.012;10.352;2023-03-23T19:01:57;5.65;;;5.10;;
25169;SDS011;13129;48.012;10.352;2023-03-23T19:04:23;6.63;;;5.35;;
25169;SDS011;13129;48.012;10.352;2023-03-23T19:06:49;7.55;;;5.97;;
25169;SDS011;13129;48.012;10.352;2023-03-23T19:09:15;5.60;;;5.10;;
25169;SDS011;13129;48.012;10.352;2023-03-23T19:11:42;5.43;;;4.45;;
25169;SDS011;13129;48.012;10.352;2023-03-23T19:14:09;4.95;;;4.53;;
25169;SDS011;13129;48.012;10.352;2023-03-23T19:16:35;4.82;;;4.20;;
25169;SDS011;13129;48.012;10.352;2023-03-23T19:19:01;5.30;;;4.32;;
25169;SDS011;13129;48.012;10.352;2023-03-23T19:21:28;4.95;;;4.55;;
25169;SDS011;13129;48.012;10.352;2023-03-23T19:23:55;5.18;;;4.68;;
25169;SDS011;13129;48.012;10.352;2023-03-23T19:26:22;5.10;;;4.22;;
25169;SDS011;13129;48.012;10.352;2023-03-23T19:28:56;7.10;;;5.22;;
25169;SDS011;13129;48.012;10.352;2023-03-23T19:31:22;4.80;;;4.40;;
25169;SDS011;13129;48.012;10.352;2023-03-23T19:33:49;4.80;;;4.40;;
25169;SDS011;13129;48.012;10.352;2023-03-23T19:36:16;5.78;;;5.30;;
25169;SDS011;13129;48.012;10.352;2023-03-23T19:38:44;9.65;;;6.72;;
25169;SDS011;13129;48.012;10.352;2023-03-23T19:41:09;7.95;;;7.15;;
25169;SDS011;13129;48.012;10.352;2023-03-23T19:43:35;8.23;;;7.28;;
25169;SDS011;13129;48.012;10.352;2023-03-23T19:46:01;7.60;;;6.90;;
25169;SDS011;13129;48.012;10.352;2023-03-23T19:48:27;7.25;;;6.63;;
25169;SDS011;13129;48.012;10.352;2023-03-23T19:50:55;7.47;;;6.63;;
25169;SDS011;13129;48.012;10.352;2023-03-23T19:53:21;8.73;;;7.82;;
25169;SDS011;13129;48.012;10.352;2023-03-23T19:55:48;10.00;;;8.95;;
25169;SDS011;13129;48.012;10.352;2023-03-23T19:58:14;14.98;;;10.55;;
25169;SDS011;13129;48.012;10.352;2023-03-23T20:00:40;14.90;;;12.88;;
25169;SDS011;13129;48.012;10.352;2023-03-23T20:03:06;13.68;;;11.20;;
25169;SDS011;13129;48.012;10.352;2023-03-23T20:05:33;12.27;;;11.07;;
25169;SDS011;13129;48.012;10.352;2023-03-23T20:07:59;10.65;;;9.55;;
25169;SDS011;13129;48.012;10.352;2023-03-23T20:10:25;8.40;;;7.50;;
25169;SDS011;13129;48.012;10.352;2023-03-23T20:12:50;7.65;;;6.53;;
25169;SDS011;13129;48.012;10.352;2023-03-23T20:15:16;6.95;;;6.25;;
25169;SDS011;13129;48.012;10.352;2023-03-23T20:17:42;6.75;;;6.05;;
25169;SDS011;13129;48.012;10.352;2023-03-23T20:20:08;8.32;;;7.53;;
25169;SDS011;13129;48.012;10.352;2023-03-23T20:22:34;11.95;;;8.50;;
25169;SDS011;13129;48.012;10.352;2023-03-23T20:25:03;8.15;;;7.35;;
25169;SDS011;13129;48.012;10.352;2023-03-23T20:27:33;8.93;;;8.02;;
25169;SDS011;13129;48.012;10.352;2023-03-23T20:30:00;8.25;;;7.38;;
25169;SDS011;13129;48.012;10.352;2023-03-23T20:32:28;7.43;;;6.63;;
25169;SDS011;13129;48.012;10.352;2023-03-23T20:37:24;7.85;;;6.90;;
25169;SDS011;13129;48.012;10.352;2023-03-23T20:39:51;6.75;;;6.03;;
25169;SDS011;13129;48.012;10.352;2023-03-23T20:42:16;6.47;;;5.85;;
25169;SDS011;13129;48.012;10.352;2023-03-23T20:44:42;7.25;;;6.15;;
25169;SDS011;13129;48.012;10.352;2023-03-23T20:47:08;6.72;;;6.03;;
25169;SDS011;13129;48.012;10.352;2023-03-23T20:49:35;6.65;;;6.05;;
25169;SDS011;13129;48.012;10.352;2023-03-23T20:52:02;6.45;;;5.85;;
25169;SDS011;13129;48.012;10.352;2023-03-23T20:54:30;6.68;;;6.00;;
25169;SDS011;13129;48.012;10.352;2023-03-23T20:56:55;8.00;;;6.03;;
25169;SDS011;13129;48.012;10.352;2023-03-23T20:59:24;8.10;;;6.65;;
25169;SDS011;13129;48.012;10.352;2023-03-23T21:01:50;7.30;;;6.60;;
25169;SDS011;13129;48.012;10.352;2023-03-23T21:04:17;7.25;;;5.78;;
25169;SDS011;13129;48.012;10.352;2023-03-23T21:06:45;6.63;;;5.95;;
25169;SDS011;13129;48.012;10.352;2023-03-23T21:09:13;7.20;;;6.38;;
25169;SDS011;13129;48.012;10.352;2023-03-23T21:11:39;7.00;;;5.85;;
25169;SDS011;13129;48.012;10.352;2023-03-23T21:14:05;6.35;;;5.70;;
25169;SDS011;13129;48.012;10.352;2023-03-23T21:16:31;6.43;;;5.78;;